AirNav   Phillips 66 Aviation Fuel
 
 1040 users online  

M49 Jolly Fisherman Seaplane Base
Waubun, Minnesota, USA


FAA INFORMATION EFFECTIVE 01 FEBRUARY 2018

Location

FAA Identifier: M49
Lat/Long: 47-08-34.8540N / 095-31-44.1060W
47-08.580900N / 095-31.735100W
47.1430150 / -95.5289183
(estimated)
Elevation: 1499 ft. / 457 m (estimated)
Variation: 05E (1985)
From city: 17 miles E of WAUBUN, MN
Time zone: UTC -6 (UTC -5 during Daylight Saving Time)
Zip code: 56589

Seaplane Base Operations

Seaplane Base use: Open to the public
Activation date: 03/1983
Control tower: no
ARTCC: MINNEAPOLIS CENTER
FSS: PRINCETON FLIGHT SERVICE STATION
NOTAMs facility: PNM (NOTAM-D service available)
Attendance: MAY-OCT DAYLIGHT HOURS, NOV-APR/UNATNDD/
Wind indicator: yes
Segmented circle: no

Seaplane Base Communications

CTAF: 122.9
WX AWOS-3PT at 3N8 (18 nm NW): 121.125 (218-936-2507)

Nearby radio navigation aids

VOR radial/distance  VOR name  Freq  Var
PKDr304/23.8PARK RAPIDS VOR/DME110.6004E
DTLr033/24.0DETROIT LAKES VOR/DME111.2005E
IDJr227/32.9LAKE BEMIDJI VOR/DME110.0001E

 
NDB name  Hdg/Dist  Freq  Var  ID
FOSSTON157/28.522403EFSE ..-. ... .

Seaplane Base Services

Parking: tiedowns
Airframe service: NONE
Powerplant service: NONE
Bottled oxygen: NONE
Bulk oxygen: NONE

Runway Information

Runway 8/26

Dimensions: 5000 x 1800 ft. / 1524 x 549 m
Surface: water
RUNWAY 8  RUNWAY 26
Traffic pattern: leftleft

Seaplane Base Ownership and Management from official FAA records

Ownership: Privately-owned
Owner: ANNE BUELOW
39126 JOLLY FISHERMAN ROAD
WAUBUN, MN 56589
Phone 701-388-8042
Manager: ANNE BUELOW
39126 JOLLY FISHERMAN ROAD
WAUBUN, MN 56589
Phone 701-388-8042

Seaplane Base Operational Statistics

Aircraft operations: 40/year *
75% local general aviation
25% transient general aviation
* for 12-month period ending 30 July 2015

Instrument Procedures

There are no published instrument procedures at M49.

Some nearby airports with instrument procedures:

3N8 - Mahnomen County Airport (18 nm NW)
KPKD - Park Rapids Municipal Airport-Konshok Field (24 nm SE)
KDTL - Detroit Lakes Airport-Wething Field (24 nm SW)
KFSE - Fosston Municipal Airport (29 nm N)
16D - Perham Municipal Airport (32 nm S)
 
Loc | Ops | Rwys | IFR | FBO | Links
Com | Nav | Svcs | Stats | Notes

AirNav Hotels Sweepstakes
 
Area around M49 (Jolly Fisherman Seaplane Base)
 
Road maps at: MapQuest Bing Google
 
Aerial photo
WARNING: Photo may not be current or correct
Aerial photo of M49 (Jolly Fisherman Seaplane Base)
Photo by Pete Peterson
Taken in September 2007

Do you have a better or more recent aerial photo of Jolly Fisherman Seaplane Base that you would like to share? If so, please send us your photo.

 
Sectional chart

 
Airport distance calculator
Flying to Jolly Fisherman Seaplane Base? Find the distance to fly.

From to M49

Sunrise and sunset
Times for 18-Feb-2018
 Local
(UTC-6)
 Zulu
(UTC)
Morning civil twilight06:5212:52
Sunrise07:2313:23
Sunset17:4923:49
Evening civil twilight18:2100:21

Current date and time
Zulu (UTC)  18-Feb-2018 22:06:09
Local (UTC-6)  18-Feb-2018 16:06:09
 
METAR
K3N8 
18nm NW 
182155Z AUTO 02016KT 10SM OVC018 M09/M11 A2974 RMK AO2 T10881115
KPKD 
24nm SE 
182153Z AUTO 03007KT 10SM SCT016 OVC055 M07/M11 A2968 RMK AO2 SLP081 T10721106
KDTL 
24nm SW 
182155Z AUTO 03009KT 10SM SCT030 SCT060 M06/M10 A2971 RMK AO2
KFSE 
28nm N 
182155Z AUTO 01012G15KT 7SM -SN SCT042 M09/M13 A2978 RMK AO2
KBJI 
33nm NE 
182155Z AUTO 03012G16KT 10SM -SN OVC015 M08/M11 A2974 RMK AO2 T10841111
TAF
KBJI 
33nm NE 
181739Z 1818/1918 05009KT 1/2SM SN BKN009 OVC020 TEMPO 1818/1821 1SM -SN BR BKN012 OVC020 FM182100 03011KT 4SM -SN BKN015 OVC025 FM182300 01011KT P6SM OVC025 FM190500 36008KT P6SM BKN050
NOTAMs
Click for the latest NOTAMs
NOTAMs are issued by the DoD/FAA and will open in a separate window not controlled by AirNav.

 

 
 

Would you like to see your business listed on this page?

 If your business provides an interesting product or service to pilots, flight crews, aircraft, or users of the Jolly Fisherman Seaplane Base, you should consider listing it here.  To start the listing process, click on the button below
 
Add a business
 

Other Pages about Jolly Fisherman Seaplane Base

PDF page(s) from the Minnesota Airport Directory
 
Update a link
 
Copyright © AirNav, LLC. All rights reserved. Privacy Policy  Contact